Time;durP1;ratioP1;P1;durP2;ratioP2;P2;SDS_P1;SDS_P2;PMS_P1;PMS_P2;Temp;Humidity;BMP_temperature;BMP_pressure;BME280_temperature;BME280_humidity;BME280_pressure;Samples;Min_cycle;Max_cycle;Signal;HPM_P1;HPM_P2
2022/06/08 00:02:32;;;;;;;0.60;0.30;;;;;;;22.73;45.18;100151.28;5012015;28;20045;-61
2022/06/08 00:05:18;;;;;;;0.30;0.10;;;;;;;22.94;45.41;100162.16;5008162;28;20044;-62
2022/06/08 00:08:03;;;;;;;1.85;0.15;;;;;;;22.80;45.07;100159.56;5011136;28;20041;-62
2022/06/08 00:10:48;;;;;;;2.47;0.15;;;;;;;22.67;45.25;100154.88;5011948;28;20049;-61
2022/06/08 00:13:33;;;;;;;0.93;0.10;;;;;;;22.62;45.72;100150.56;5018617;28;20057;-64
2022/06/08 00:16:19;;;;;;;0.52;0.15;;;;;;;22.76;45.81;100142.16;5012142;28;20064;-64
2022/06/08 00:19:04;;;;;;;0.10;0.00;;;;;;;22.94;45.33;100151.09;5011729;28;20433;-63
2022/06/08 00:21:48;;;;;;;6.72;0.22;;;;;;;22.66;45.15;100145.78;5004684;28;20041;-63
2022/06/08 00:24:34;;;;;;;1.90;0.20;;;;;;;22.56;46.28;100139.16;5011707;28;20048;-63
2022/06/08 00:27:19;;;;;;;1.80;0.10;;;;;;;22.74;45.53;100135.44;5009480;28;20049;-63
2022/06/08 00:30:08;;;;;;;3.40;0.25;;;;;;;22.72;45.99;100135.06;4992202;28;20118;-63
2022/06/08 00:32:53;;;;;;;3.15;0.15;;;;;;;22.63;44.53;100138.28;5005278;28;20053;-63
2022/06/08 00:35:39;;;;;;;0.80;0.20;;;;;;;22.37;45.12;100131.41;5010980;28;20048;-63
2022/06/08 00:38:23;;;;;;;1.45;0.15;;;;;;;21.59;44.02;100129.16;5011368;28;20108;-63
2022/06/08 00:41:14;;;;;;;2.88;0.10;;;;;;;21.57;44.53;100133.53;5011047;28;20061;-61
2022/06/08 00:44:04;;;;;;;1.15;0.10;;;;;;;20.66;45.68;100127.91;5018192;28;20052;-62
2022/06/08 00:46:49;;;;;;;0.43;0.22;;;;;;;20.86;47.44;100140.09;5011659;28;20397;-62
2022/06/08 00:49:39;;;;;;;0.65;0.00;;;;;;;21.19;49.74;100138.84;5011549;28;20049;-62
2022/06/08 00:52:26;;;;;;;2.50;0.55;;;;;;;21.39;48.11;100141.13;5018003;28;20048;-62
2022/06/08 00:55:16;;;;;;;0.95;0.20;;;;;;;21.71;48.92;100139.78;5011676;28;20041;-63
2022/06/08 00:58:06;;;;;;;0.70;0.13;;;;;;;21.95;48.72;100140.81;5011330;28;20069;-63
2022/06/08 01:00:52;;;;;;;2.30;0.30;;;;;;;22.10;48.38;100141.50;5011324;28;20045;-63
2022/06/08 01:03:39;;;;;;;0.85;0.10;;;;;;;22.08;48.90;100144.72;5010596;28;20409;-63
2022/06/08 01:06:24;;;;;;;1.65;0.10;;;;;;;21.97;48.72;100129.34;5010040;28;20049;-63
2022/06/08 01:09:20;;;;;;;0.57;0.45;;;;;;;22.22;47.83;100143.81;5010937;28;20041;-63
2022/06/08 01:12:14;;;;;;;2.83;0.25;;;;;;;22.23;47.62;100145.38;5011418;28;20114;-63
2022/06/08 01:15:06;;;;;;;0.40;0.17;;;;;;;21.53;48.79;100147.41;5009850;28;20049;-63
2022/06/08 01:17:51;;;;;;;2.50;0.30;;;;;;;21.50;48.44;100141.88;5010878;28;20045;-63
2022/06/08 01:20:55;;;;;;;0.88;0.20;;;;;;;21.43;47.87;100147.44;5011801;28;20496;-63
2022/06/08 01:23:55;;;;;;;1.65;0.35;;;;;;;20.69;49.21;100140.13;4999410;28;20053;-63
2022/06/08 01:27:22;;;;;;;2.03;0.17;;;;;;;21.10;51.27;100143.19;5007790;28;20049;-63
2022/06/08 01:30:30;;;;;;;0.30;0.10;;;;;;;21.42;51.18;100145.88;5015098;28;20424;-63
2022/06/08 01:33:29;;;;;;;5.68;0.95;;;;;;;21.52;49.31;100150.56;5014952;28;20049;-63
2022/06/08 01:36:35;;;;;;;4.22;0.20;;;;;;;21.60;49.63;100143.78;5013567;28;20393;-63
2022/06/08 01:39:48;;;;;;;0.88;0.20;;;;;;;21.94;50.22;100155.84;5014744;28;20044;-63
2022/06/08 01:42:57;;;;;;;1.80;0.50;;;;;;;20.89;51.39;100155.09;5014492;28;20049;-62
2022/06/08 01:46:00;;;;;;;0.77;0.40;;;;;;;21.29;52.04;100151.84;5014516;28;20400;-62
2022/06/08 01:48:48;;;;;;;1.65;0.60;;;;;;;21.26;51.05;100149.88;5016571;28;20033;-62
2022/06/08 01:52:15;;;;;;;2.90;0.60;;;;;;;20.71;52.82;100162.63;5016602;28;20536;-61
2022/06/08 01:55:25;;;;;;;1.35;0.70;;;;;;;20.87;53.23;100160.25;5012520;28;20041;-62
2022/06/08 01:58:25;;;;;;;1.27;0.73;;;;;;;21.16;52.06;100153.47;5013678;28;20045;-62
2022/06/08 02:01:42;;;;;;;1.30;0.70;;;;;;;21.31;51.93;100151.44;5011033;28;20053;-62
2022/06/08 02:04:44;;;;;;;1.40;0.57;;;;;;;21.31;51.92;100157.75;5013882;28;20520;-62
2022/06/08 02:07:50;;;;;;;3.20;0.40;;;;;;;21.42;52.22;100159.69;5013853;28;20041;-62
2022/06/08 02:10:35;;;;;;;1.50;0.60;;;;;;;21.57;51.34;100152.91;5013321;28;20516;-63
2022/06/08 02:13:35;;;;;;;3.13;0.70;;;;;;;21.43;51.00;100153.78;5014091;28;20073;-63
2022/06/08 02:16:39;;;;;;;4.78;0.65;;;;;;;21.53;51.23;100149.38;5014052;28;20049;-63
2022/06/08 02:19:53;;;;;;;4.25;1.15;;;;;;;21.44;51.07;100157.28;5013804;28;20125;-62
2022/06/08 02:22:49;;;;;;;4.28;0.57;;;;;;;21.47;51.81;100159.28;5014313;28;20065;-63
2022/06/08 02:25:41;;;;;;;3.08;1.10;;;;;;;20.94;52.24;100157.44;5013006;28;20053;-63
2022/06/08 02:28:34;;;;;;;4.40;1.70;;;;;;;21.05;53.65;100158.22;5014023;28;20053;-63
2022/06/08 02:31:26;;;;;;;8.10;1.88;;;;;;;20.26;55.57;100156.72;5014054;28;20049;-63
2022/06/08 02:34:28;;;;;;;2.65;1.30;;;;;;;20.27;55.82;100143.69;5019721;28;20049;-63
2022/06/08 02:37:21;;;;;;;5.90;1.27;;;;;;;20.72;54.67;100142.91;5013765;28;20396;-63
2022/06/08 02:40:14;;;;;;;0.90;0.63;;;;;;;20.89;54.56;100147.59;5013993;28;20054;-63
2022/06/08 02:43:09;;;;;;;4.38;0.95;;;;;;;21.12;54.17;100154.66;5013648;28;20040;-63
2022/06/08 02:46:04;;;;;;;3.38;1.30;;;;;;;20.75;53.32;100152.38;5013686;28;20049;-63
2022/06/08 02:48:49;;;;;;;2.90;1.50;;;;;;;20.64;55.01;100157.09;4994230;28;20049;-63
2022/06/08 02:51:36;;;;;;;1.52;1.02;;;;;;;20.46;55.62;100157.13;5004538;28;20049;-62
2022/06/08 02:54:24;;;;;;;1.98;1.20;;;;;;;21.00;54.87;100169.69;5013209;28;20052;-63
2022/06/08 02:57:41;;;;;;;1.95;0.80;;;;;;;21.22;54.13;100167.69;5013188;28;20037;-63
2022/06/08 03:00:39;;;;;;;;;;;;;;;20.79;52.97;100167.75;5031060;22;20073;-77
2022/06/08 03:03:42;;;;;;;1.53;1.00;;;;;;;20.53;53.86;100175.66;4988795;28;19921;-75
2022/06/08 03:06:35;;;;;;;9.48;1.70;;;;;;;19.87;55.71;100172.44;4992083;28;20041;-76
2022/06/08 03:09:21;;;;;;;2.95;1.35;;;;;;;19.34;58.41;100173.03;4997737;28;20065;-76
2022/06/08 03:12:15;;;;;;;5.10;1.02;;;;;;;19.97;57.17;100179.94;5004729;22;20054;-65
2022/06/08 03:15:02;;;;;;;2.50;1.20;;;;;;;20.39;56.18;100190.28;5007238;28;20064;-65
2022/06/08 03:17:50;;;;;;;4.00;1.20;;;;;;;20.73;55.23;100193.41;5008439;28;20057;-66
2022/06/08 03:20:36;;;;;;;7.82;1.60;;;;;;;20.30;54.84;100193.41;4993133;28;20054;-66
2022/06/08 03:23:22;;;;;;;4.45;1.63;;;;;;;20.56;55.24;100199.75;5001432;28;20077;-65
2022/06/08 03:26:06;;;;;;;3.13;1.40;;;;;;;20.42;56.01;100204.06;5001671;28;20429;-65
2022/06/08 03:28:53;;;;;;;4.32;1.65;;;;;;;20.48;55.54;100199.75;4986347;28;20049;-65
2022/06/08 03:31:38;;;;;;;5.55;1.42;;;;;;;20.77;55.05;100208.03;4991503;28;20050;-62
2022/06/08 03:34:24;;;;;;;5.90;1.30;;;;;;;20.86;54.51;100208.41;4993114;28;20049;-65
2022/06/08 03:37:09;;;;;;;5.43;1.90;;;;;;;20.76;54.87;100210.00;4998633;28;20417;-64
2022/06/08 03:39:57;;;;;;;9.38;2.53;;;;;;;20.81;54.72;100222.63;4986487;28;20061;-65
2022/06/08 03:42:42;;;;;;;5.60;1.38;;;;;;;21.12;54.01;100223.78;4991973;28;20054;-63
2022/06/08 03:45:36;;;;;;;4.55;1.38;;;;;;;21.31;53.44;100228.88;4991817;28;20085;-64
2022/06/08 03:48:21;;;;;;;6.28;1.20;;;;;;;21.36;53.48;100227.69;4987499;28;20046;-63
2022/06/08 03:51:07;;;;;;;10.75;1.98;;;;;;;21.08;53.59;100223.00;4992067;28;20050;-63
2022/06/08 03:53:58;;;;;;;7.25;1.77;;;;;;;20.67;53.62;100228.19;4990557;28;20126;-63
2022/06/08 03:56:48;;;;;;;6.20;2.33;;;;;;;20.15;54.76;100224.16;4986343;28;20050;-63
2022/06/08 03:59:38;;;;;;;5.80;1.67;;;;;;;19.33;58.38;100232.09;4990736;28;20621;-63
2022/06/08 04:02:24;;;;;;;5.85;2.30;;;;;;;19.73;58.06;100235.84;5000269;28;20073;-63
2022/06/08 04:05:09;;;;;;;2.90;1.20;;;;;;;20.23;57.37;100237.56;5011316;28;20044;-63
2022/06/08 04:07:56;;;;;;;6.30;1.58;;;;;;;20.72;56.24;100244.38;5006346;28;20101;-62
2022/06/08 04:10:41;;;;;;;8.52;1.58;;;;;;;21.00;54.75;100252.63;4991778;28;20050;-63
2022/06/08 04:13:26;;;;;;;5.47;1.27;;;;;;;21.32;54.23;100252.59;4992965;28;20053;-63
2022/06/08 04:16:16;;;;;;;3.28;1.52;;;;;;;21.39;53.97;100265.59;5003041;28;20049;-63
2022/06/08 04:19:02;;;;;;;5.35;2.97;;;;;;;21.04;53.96;100266.44;4991977;28;20397;-63
2022/06/08 04:21:52;;;;;;;3.67;1.88;;;;;;;20.62;55.66;100270.78;4989549;28;20049;-62
2022/06/08 04:24:37;;;;;;;5.55;2.38;;;;;;;20.74;55.46;100272.38;4991711;28;20501;-62
2022/06/08 04:27:23;;;;;;;8.38;2.10;;;;;;;20.99;54.96;100278.69;4989101;28;20057;-64
2022/06/08 04:30:09;;;;;;;17.33;2.72;;;;;;;20.86;55.85;100266.47;4991558;28;20045;-63
2022/06/08 04:32:55;;;;;;;9.02;1.35;;;;;;;21.22;55.11;100270.81;4991357;28;20045;-63
2022/06/08 04:35:40;;;;;;;11.45;2.83;;;;;;;21.47;54.40;100276.28;4991090;28;20061;-65
2022/06/08 04:38:27;;;;;;;2.95;1.30;;;;;;;21.35;54.89;100279.44;4991734;28;20529;-65
2022/06/08 04:41:12;;;;;;;7.15;1.48;;;;;;;21.58;54.18;100279.00;4991270;28;20037;-65
2022/06/08 04:43:58;;;;;;;2.53;1.48;;;;;;;21.85;53.35;100279.28;4991182;28;20065;-64
2022/06/08 04:46:44;;;;;;;4.28;1.27;;;;;;;21.74;53.54;100279.31;4991456;28;20417;-64
2022/06/08 04:49:35;;;;;;;6.20;1.90;;;;;;;21.76;54.04;100274.97;4991061;28;20041;-65
2022/06/08 04:52:21;;;;;;;3.80;1.63;;;;;;;21.85;53.58;100279.28;4990535;28;20412;-63
2022/06/08 04:55:09;;;;;;;4.38;1.75;;;;;;;21.72;53.00;100278.97;4989827;28;20042;-69
2022/06/08 04:57:54;;;;;;;8.93;1.77;;;;;;;21.40;54.62;100283.78;4991440;28;20057;-66
2022/06/08 05:00:41;;;;;;;4.63;1.23;;;;;;;21.50;54.79;100278.22;4996623;28;20041;-66
2022/06/08 05:03:30;;;;;;;4.68;1.50;;;;;;;21.65;53.18;100276.19;4993278;28;20072;-66
2022/06/08 05:06:17;;;;;;;11.20;2.20;;;;;;;21.85;53.88;100282.84;4999025;28;20089;-65
2022/06/08 05:09:03;;;;;;;17.83;2.53;;;;;;;22.05;53.50;100272.88;4993449;28;20049;-65
2022/06/08 05:11:51;;;;;;;3.53;1.73;;;;;;;21.74;51.80;100273.78;4991321;28;20049;-65
2022/06/08 05:14:39;;;;;;;4.53;1.42;;;;;;;21.87;52.80;100283.25;4990240;28;20901;-65
2022/06/08 05:17:24;;;;;;;3.65;1.77;;;;;;;22.05;53.02;100283.19;4991360;28;20057;-64
2022/06/08 05:20:11;;;;;;;7.93;1.67;;;;;;;22.04;52.50;100284.41;5002037;28;20037;-64
2022/06/08 05:22:58;;;;;;;10.48;1.83;;;;;;;21.82;51.94;100291.97;4987815;28;20053;-63
2022/06/08 05:25:45;;;;;;;3.38;1.70;;;;;;;21.98;52.33;100284.03;4987898;28;20418;-64
2022/06/08 05:28:31;;;;;;;5.35;1.17;;;;;;;22.26;52.27;100285.03;4991994;28;20049;-64
2022/06/08 05:31:18;;;;;;;9.45;2.20;;;;;;;22.72;51.07;100280.00;5004324;28;20044;-64
2022/06/08 05:34:07;;;;;;;4.30;2.20;;;;;;;23.05;49.86;100277.75;4995303;28;20054;-63
2022/06/08 05:36:54;;;;;;;5.80;1.13;;;;;;;22.87;50.17;100283.44;4988643;28;20054;-64
2022/06/08 05:39:42;;;;;;;4.63;1.13;;;;;;;22.85;49.65;100281.09;5002249;28;20500;-64
2022/06/08 05:42:28;;;;;;;13.20;2.08;;;;;;;22.57;50.61;100292.38;4990636;28;20421;-65
2022/06/08 05:45:23;;;;;;;5.38;1.60;;;;;;;22.70;50.21;100290.72;4999779;28;20441;-65
2022/06/08 05:48:10;;;;;;;12.23;2.00;;;;;;;22.66;50.04;100300.22;4986355;28;20041;-66
2022/06/08 05:50:58;;;;;;;6.88;1.85;;;;;;;22.57;50.68;100293.16;4985198;28;20061;-65
2022/06/08 05:53:45;;;;;;;3.97;1.88;;;;;;;22.73;50.57;100294.66;4991646;28;20053;-65
2022/06/08 05:56:30;;;;;;;7.28;2.03;;;;;;;22.89;50.44;100292.16;4991961;28;20049;-65
2022/06/08 05:59:15;;;;;;;5.85;2.08;;;;;;;23.05;50.08;100299.94;4987880;28;20050;-63
2022/06/08 06:02:03;;;;;;;7.78;1.67;;;;;;;23.21;48.43;100297.44;4997393;28;20053;-63
2022/06/08 06:04:48;;;;;;;9.00;1.70;;;;;;;23.48;47.27;100300.34;4983556;28;20332;-63
2022/06/08 06:07:33;;;;;;;14.80;1.95;;;;;;;23.55;47.37;100297.50;4992733;28;20045;-63
2022/06/08 06:10:40;;;;;;;5.55;1.80;;;;;;;23.69;45.60;100300.13;4991809;28;20065;-64
2022/06/08 06:13:26;;;;;;;2.35;0.90;;;;;;;23.80;43.36;100300.78;4994476;28;20057;-65
2022/06/08 06:16:14;;;;;;;7.32;0.60;;;;;;;23.16;44.67;100300.66;4983487;28;20517;-63
2022/06/08 06:19:01;;;;;;;2.08;0.70;;;;;;;23.07;46.18;100303.09;4979530;28;20045;-62
2022/06/08 06:22:08;;;;;;;3.05;0.68;;;;;;;23.33;45.87;100308.00;4993596;28;20049;-63
2022/06/08 06:25:16;;;;;;;1.85;0.60;;;;;;;23.46;46.27;100303.56;4983282;28;20061;-63
2022/06/08 06:28:08;;;;;;;3.58;0.82;;;;;;;23.54;46.74;100298.69;4993216;28;20045;-63
2022/06/08 06:31:30;;;;;;;2.33;0.50;;;;;;;23.65;46.31;100299.38;4992286;28;20037;-64
2022/06/08 06:34:25;;;;;;;6.05;0.80;;;;;;;23.68;46.53;100304.88;5011135;28;20667;-63
2022/06/08 06:37:13;;;;;;;3.17;0.60;;;;;;;23.69;46.03;100300.13;5013466;28;20053;-63
2022/06/08 06:39:58;;;;;;;1.50;0.55;;;;;;;23.72;45.85;100299.31;5013612;28;20057;-64
2022/06/08 06:42:48;;;;;;;6.57;0.93;;;;;;;23.81;46.03;100299.59;5000919;28;20062;-64
2022/06/08 06:45:46;;;;;;;2.88;1.05;;;;;;;23.86;45.26;100299.91;4977976;28;20053;-62
2022/06/08 06:48:57;;;;;;;3.58;0.95;;;;;;;23.92;45.67;100293.91;4994905;28;20052;-64
2022/06/08 06:51:42;;;;;;;1.98;0.80;;;;;;;23.90;46.35;100296.28;4984860;28;20065;-64
2022/06/08 06:54:28;;;;;;;4.38;0.50;;;;;;;24.01;45.17;100289.41;4993516;28;20110;-64
2022/06/08 06:57:14;;;;;;;5.65;0.60;;;;;;;23.99;45.62;100291.00;4999858;28;20054;-64
2022/06/08 06:59:59;;;;;;;1.85;0.47;;;;;;;24.00;46.07;100282.28;4990239;28;20041;-63
2022/06/08 07:02:45;;;;;;;2.95;0.50;;;;;;;24.08;46.10;100280.16;4997929;28;20056;-64
2022/06/08 07:05:33;;;;;;;2.95;0.60;;;;;;;24.10;45.58;100283.34;5004488;28;20053;-64
2022/06/08 07:08:20;;;;;;;1.00;0.35;;;;;;;24.17;44.75;100286.06;5003932;28;20049;-62
2022/06/08 07:14:17;;;;;;;3.08;0.60;;;;;;;24.24;44.79;100274.81;4995058;28;20041;-62
2022/06/08 07:17:03;;;;;;;1.45;0.50;;;;;;;24.33;44.64;100279.88;4995087;28;20621;-63
2022/06/08 07:19:53;;;;;;;1.55;0.60;;;;;;;24.40;44.61;100280.56;4992406;28;20509;-62
2022/06/08 07:22:38;;;;;;;6.32;0.73;;;;;;;24.38;45.21;100273.84;5003618;28;20057;-62
2022/06/08 07:25:26;;;;;;;0.75;0.70;;;;;;;24.46;44.93;100270.53;4994591;28;20053;-62
2022/06/08 07:28:11;;;;;;;1.13;0.85;;;;;;;24.46;44.60;100269.75;4992494;28;20053;-63
2022/06/08 07:30:56;;;;;;;1.70;0.50;;;;;;;24.49;44.75;100269.69;4991807;28;20241;-63
2022/06/08 07:33:41;;;;;;;5.82;0.63;;;;;;;24.50;45.39;100265.69;5002762;28;20045;-63
2022/06/08 07:36:26;;;;;;;1.75;0.75;;;;;;;24.54;45.32;100262.84;4999597;28;20048;-63
2022/06/08 07:39:13;;;;;;;2.58;0.80;;;;;;;24.56;45.32;100275.16;5006200;28;20045;-62
2022/06/08 07:41:58;;;;;;;3.95;0.70;;;;;;;24.64;44.72;100264.69;4982814;28;20395;-63
2022/06/08 07:44:44;;;;;;;0.90;0.50;;;;;;;24.75;45.01;100268.09;4976000;28;20062;-62
2022/06/08 07:47:28;;;;;;;1.05;0.60;;;;;;;24.76;44.93;100271.66;4987488;28;20053;-63
2022/06/08 07:50:15;;;;;;;5.28;1.00;;;;;;;24.77;45.12;100262.91;4976607;28;20074;-63
2022/06/08 07:53:00;;;;;;;1.52;0.70;;;;;;;24.82;45.29;100258.84;4994598;28;20041;-63
2022/06/08 07:55:46;;;;;;;2.60;0.90;;;;;;;24.85;44.33;100257.97;4999267;28;20069;-62
2022/06/08 07:58:31;;;;;;;0.98;0.60;;;;;;;24.87;45.34;100261.97;4990598;28;20532;-64
2022/06/08 08:01:16;;;;;;;3.47;0.82;;;;;;;25.10;43.43;100256.38;4991827;28;20049;-65
2022/06/08 08:04:01;;;;;;;2.75;0.95;;;;;;;25.21;43.36;100258.16;4986674;28;20079;-64
2022/06/08 08:06:46;;;;;;;1.55;0.68;;;;;;;25.32;43.09;100247.63;4991913;28;20434;-63
2022/06/08 08:09:33;;;;;;;3.28;0.90;;;;;;;25.23;43.00;100256.56;4989858;28;20053;-63
2022/06/08 08:12:18;;;;;;;2.63;0.73;;;;;;;25.53;42.17;100252.78;4991716;28;20042;-65
2022/06/08 08:15:04;;;;;;;4.32;0.75;;;;;;;25.37;42.96;100261.84;4991684;28;20516;-65
2022/06/08 08:17:50;;;;;;;2.38;0.70;;;;;;;25.51;42.81;100260.78;4982607;28;20414;-65
2022/06/08 08:20:35;;;;;;;0.73;0.50;;;;;;;25.60;42.67;100263.78;4985841;28;20049;-66
2022/06/08 08:23:21;;;;;;;2.10;1.00;;;;;;;25.58;41.77;100257.88;4992986;28;20045;-64
2022/06/08 08:26:05;;;;;;;4.40;1.50;;;;;;;25.49;42.86;100263.22;5003790;28;20092;-67
2022/06/08 08:28:51;;;;;;;2.17;1.02;;;;;;;25.98;41.27;100247.50;5009068;28;20413;-63
2022/06/08 08:31:37;;;;;;;1.67;1.02;;;;;;;26.03;41.92;100246.19;4996935;28;20187;-62
2022/06/08 08:34:22;;;;;;;1.95;1.10;;;;;;;26.14;40.55;100258.69;5002136;28;20057;-63
2022/06/08 08:37:07;;;;;;;4.10;1.67;;;;;;;26.25;40.12;100259.25;4991109;28;20524;-62
2022/06/08 08:39:52;;;;;;;2.50;0.70;;;;;;;26.25;40.06;100259.25;4991551;28;20058;-63
2022/06/08 08:42:37;;;;;;;3.55;1.35;;;;;;;26.20;38.77;100261.75;4990965;28;20066;-62
2022/06/08 08:45:23;;;;;;;6.90;0.70;;;;;;;26.19;39.89;100262.97;4990247;28;20049;-62
2022/06/08 08:48:24;;;;;;;2.67;1.00;;;;;;;26.45;39.69;100253.63;4991127;28;20058;-64
2022/06/08 08:51:15;;;;;;;4.35;1.38;;;;;;;26.31;39.91;100263.09;4986865;28;20114;-62
2022/06/08 08:54:19;;;;;;;2.92;1.05;;;;;;;26.26;40.33;100255.25;4987601;28;20057;-64
2022/06/08 08:57:18;;;;;;;5.35;1.25;;;;;;;26.35;40.25;100252.66;4986135;28;20060;-64
2022/06/08 09:00:16;;;;;;;5.60;1.48;;;;;;;26.35;40.85;100252.66;4985954;28;20050;-63
2022/06/08 09:03:15;;;;;;;2.15;1.20;;;;;;;26.45;40.56;100250.84;4979494;28;20045;-78
2022/06/08 09:06:25;;;;;;;4.55;1.20;;;;;;;26.33;39.79;100243.94;4982137;28;20041;-78
2022/06/08 09:09:21;;;;;;;6.28;1.80;;;;;;;26.22;40.73;100243.38;4988199;28;20515;-77
2022/06/08 09:12:12;;;;;;;4.10;1.70;;;;;;;26.32;41.38;100238.78;5021778;23;20061;-59
2022/06/08 09:15:00;;;;;;;5.47;1.20;;;;;;;26.35;42.31;100252.66;5005729;28;20412;-60
2022/06/08 09:17:56;;;;;;;2.42;1.27;;;;;;;26.35;41.67;100247.09;5006643;28;20052;-60
2022/06/08 09:20:41;;;;;;;6.93;2.05;;;;;;;26.16;41.40;100247.88;5011569;28;20068;-60
2022/06/08 09:23:41;;;;;;;4.88;2.03;;;;;;;26.22;41.83;100245.38;5015970;28;20516;-61
2022/06/08 09:26:30;;;;;;;4.88;2.10;;;;;;;26.19;41.57;100249.81;5009511;28;20045;-60
2022/06/08 09:29:15;;;;;;;7.60;2.30;;;;;;;26.21;42.71;100246.59;5011073;28;20072;-60
2022/06/08 09:32:00;;;;;;;3.85;2.33;;;;;;;26.31;42.70;100238.00;5011265;28;20041;-60
2022/06/08 09:34:54;;;;;;;8.57;3.72;;;;;;;26.43;42.99;100238.53;5004140;28;20044;-60
2022/06/08 09:37:39;;;;;;;4.72;2.95;;;;;;;26.28;42.17;100236.09;5004978;28;20301;-61
2022/06/08 09:40:40;;;;;;;11.35;3.92;;;;;;;26.21;41.78;100227.09;5006492;28;20045;-61
2022/06/08 09:43:36;;;;;;;4.80;2.70;;;;;;;26.41;42.11;100232.63;5005973;28;20061;-61
2022/06/08 09:51:25;;;;;;;;;;;;;;;26.70;41.79;100233.50;5009080;28;20046;-61
2022/06/08 09:53:17;;;;;;;6.25;3.05;;;;;;;26.84;41.06;100227.53;5018881;28;20522;-60
2022/06/08 09:56:16;;;;;;;8.65;4.00;;;;;;;26.91;41.88;100227.41;5014414;28;20072;-60
2022/06/08 09:59:16;;;;;;;7.03;3.72;;;;;;;26.98;41.07;100229.97;5010256;28;20045;-60
2022/06/08 10:02:17;;;;;;;6.82;4.13;;;;;;;27.04;41.44;100219.84;5011276;28;20101;-61
2022/06/08 10:05:42;;;;;;;4.15;3.28;;;;;;;27.10;41.35;100228.50;5013704;28;20413;-61
2022/06/08 10:08:38;;;;;;;6.97;3.30;;;;;;;27.17;39.82;100214.34;5007808;28;20069;-60
2022/06/08 10:11:36;;;;;;;7.65;3.05;;;;;;;27.20;39.85;100222.63;5013536;28;20048;-60
2022/06/08 10:14:42;;;;;;;5.85;3.28;;;;;;;27.08;39.71;100216.97;5015998;28;20067;-60
2022/06/08 10:17:47;;;;;;;4.97;3.17;;;;;;;27.16;40.04;100218.34;5011846;28;20049;-61
2022/06/08 10:20:44;;;;;;;5.68;3.75;;;;;;;27.22;40.34;100209.00;5016070;28;20425;-61
2022/06/08 10:23:48;;;;;;;6.55;3.38;;;;;;;27.33;40.75;100205.13;5005034;28;20057;-60
2022/06/08 10:26:39;;;;;;;4.13;3.00;;;;;;;27.26;39.52;100200.53;5016286;28;20053;-60
2022/06/08 10:29:39;;;;;;;4.30;2.92;;;;;;;27.31;39.68;100199.19;5013414;28;20052;-61
2022/06/08 10:32:30;;;;;;;5.15;3.70;;;;;;;27.45;40.32;100193.19;5017590;28;20081;-61
2022/06/08 10:35:20;;;;;;;5.30;3.17;;;;;;;27.48;39.55;100195.88;5005380;28;20050;-61
2022/06/08 10:38:06;;;;;;;3.63;2.90;;;;;;;27.58;40.02;100186.44;5008341;28;20543;-61
2022/06/08 10:44:44;;;;;;;3.75;2.42;;;;;;;27.72;39.10;100179.66;5012201;28;20409;-61
2022/06/08 10:47:37;;;;;;;5.53;3.35;;;;;;;27.81;39.28;100181.78;5013375;28;20057;-61
2022/06/08 10:50:34;;;;;;;5.13;3.08;;;;;;;27.82;38.80;100175.75;5012751;28;20041;-61
2022/06/08 10:56:32;;;;;;;4.18;2.50;;;;;;;27.84;37.94;100176.06;5014159;28;20073;-61
2022/06/08 10:59:25;;;;;;;7.15;3.17;;;;;;;27.91;37.83;100178.66;5007351;28;20460;-61
2022/06/08 11:02:15;;;;;;;4.55;2.55;;;;;;;27.88;37.42;100173.97;5011100;28;20045;-61
2022/06/08 11:05:08;;;;;;;3.47;2.03;;;;;;;28.03;35.70;100163.91;5012794;28;20060;-61
2022/06/08 11:07:58;;;;;;;4.63;1.95;;;;;;;28.07;36.22;100167.38;5005448;28;20060;-61
2022/06/08 11:13:49;;;;;;;7.22;2.75;;;;;;;28.41;35.86;100157.50;5012263;28;20049;-61
2022/06/08 11:16:35;;;;;;;9.38;3.28;;;;;;;28.38;36.19;100159.22;5016154;28;20065;-61
2022/06/08 11:19:24;;;;;;;3.65;2.38;;;;;;;28.35;34.86;100148.13;5010432;28;20045;-61
2022/06/08 11:22:15;;;;;;;5.13;2.50;;;;;;;28.47;35.14;100150.13;5012731;28;20041;-61
2022/06/08 11:25:05;;;;;;;5.68;3.35;;;;;;;28.47;36.74;100150.13;5012635;28;20421;-61
2022/06/08 11:28:28;;;;;;;3.40;2.35;;;;;;;28.52;35.41;100141.16;5013912;28;20053;-61
2022/06/08 11:31:28;;;;;;;3.42;1.92;;;;;;;28.64;35.27;100136.75;5015969;28;20037;-61
2022/06/08 11:34:19;;;;;;;7.97;3.33;;;;;;;28.47;34.93;100125.72;5009850;28;20413;-61
2022/06/08 11:37:32;;;;;;;5.68;2.58;;;;;;;28.63;35.20;100126.78;5003362;28;20049;-61
2022/06/08 11:40:27;;;;;;;8.20;3.40;;;;;;;28.70;36.01;100118.16;5000906;28;20041;-61
2022/06/08 11:43:13;;;;;;;;;;;;;;;28.73;35.65;100120.84;5005082;28;20061;-61
2022/06/08 11:46:00;;;;;;;6.70;4.07;;;;;;;28.66;37.37;100114.69;4998331;28;19914;-61
2022/06/08 11:48:49;;;;;;;10.23;3.80;;;;;;;28.60;36.84;100108.13;4999322;28;20485;-61
2022/06/08 11:51:41;;;;;;;7.53;3.92;;;;;;;28.64;36.83;100106.75;5000530;28;20041;-61
2022/06/08 11:54:31;;;;;;;5.13;3.05;;;;;;;28.51;36.53;100111.59;5009551;28;20048;-61
2022/06/08 11:57:20;;;;;;;7.32;2.90;;;;;;;28.60;35.88;100106.09;5008518;28;20057;-61
2022/06/08 12:00:23;;;;;;;3.42;2.28;;;;;;;28.54;36.17;100096.72;5003565;28;20515;-61
2022/06/08 12:03:42;;;;;;;4.43;2.25;;;;;;;28.60;35.81;100103.28;5010583;28;20067;-61
2022/06/08 12:06:33;;;;;;;5.50;2.15;;;;;;;28.46;36.03;100087.78;5013117;28;20540;-61
2022/06/08 12:09:32;;;;;;;5.35;1.90;;;;;;;28.56;35.49;100091.44;5013114;28;20505;-61
2022/06/08 12:12:21;;;;;;;6.57;1.90;;;;;;;28.30;36.64;100078.75;5012970;28;20045;-61
2022/06/08 12:15:36;;;;;;;6.53;2.55;;;;;;;28.31;38.04;100091.53;5013501;28;20512;-61
2022/06/08 12:18:31;;;;;;;10.00;2.63;;;;;;;28.34;37.38;100082.25;5012327;28;20057;-61
2022/06/08 12:21:34;;;;;;;7.43;1.55;;;;;;;28.31;37.66;100080.34;5013572;28;20043;-61
2022/06/08 12:24:19;;;;;;;3.20;1.55;;;;;;;28.38;37.02;100082.91;5004803;28;20045;-61
2022/06/08 12:27:23;;;;;;;1.60;0.98;;;;;;;28.46;35.22;100082.19;5005852;28;20048;-61
2022/06/08 12:30:30;;;;;;;4.45;1.52;;;;;;;28.33;35.48;100075.09;5008364;28;20053;-60
2022/06/08 12:33:16;;;;;;;4.55;1.33;;;;;;;28.40;35.36;100074.81;5005670;28;20413;-60
2022/06/08 12:36:11;;;;;;;2.53;1.10;;;;;;;28.40;35.40;100072.03;5013901;28;20042;-60
2022/06/08 12:39:03;;;;;;;1.95;1.20;;;;;;;28.41;35.58;100068.00;5004887;28;20069;-60
2022/06/08 12:41:51;;;;;;;2.80;1.40;;;;;;;28.47;35.10;100061.38;5003574;28;20040;-60
2022/06/08 12:44:36;;;;;;;2.13;0.65;;;;;;;28.34;34.92;100052.22;5013504;28;20064;-60
2022/06/08 12:47:26;;;;;;;0.90;0.77;;;;;;;28.50;35.19;100048.47;5011411;28;20048;-60
2022/06/08 12:50:15;;;;;;;2.95;0.70;;;;;;;28.48;34.61;100050.97;5011383;28;20068;-60
2022/06/08 12:53:02;;;;;;;1.95;0.52;;;;;;;28.47;33.88;100047.38;5013208;28;20045;-60
2022/06/08 12:55:47;;;;;;;1.98;0.75;;;;;;;28.53;33.18;100044.78;5011108;28;20060;-60
2022/06/08 12:58:32;;;;;;;3.42;0.93;;;;;;;28.63;33.38;100043.63;5012412;28;20048;-60
2022/06/08 13:01:20;;;;;;;3.70;0.57;;;;;;;28.72;33.02;100040.91;5013057;28;20045;-60
2022/06/08 13:04:06;;;;;;;1.98;0.75;;;;;;;28.73;31.92;100036.09;5016544;28;20064;-60
2022/06/08 13:06:51;;;;;;;1.13;0.40;;;;;;;28.79;34.15;100040.69;5015051;28;20049;-60
2022/06/08 13:09:36;;;;;;;5.63;1.33;;;;;;;28.60;34.23;100036.13;5011227;28;20413;-60
2022/06/08 13:12:27;;;;;;;6.63;1.10;;;;;;;28.63;33.94;100032.44;5011303;28;20049;-60
2022/06/08 13:15:30;;;;;;;2.38;0.98;;;;;;;28.73;34.15;100025.69;5010932;28;20512;-60
2022/06/08 13:18:18;;;;;;;4.60;0.88;;;;;;;28.72;33.69;100015.72;5015289;28;20440;-60
2022/06/08 13:21:06;;;;;;;1.58;0.63;;;;;;;28.75;33.60;100016.84;5014642;28;20045;-60
2022/06/08 13:23:52;;;;;;;1.88;0.80;;;;;;;28.77;33.57;100009.56;5018180;28;20057;-60
2022/06/08 13:26:38;;;;;;;1.25;0.70;;;;;;;28.83;33.11;100013.31;5015387;28;20060;-60
2022/06/08 13:29:23;;;;;;;1.52;0.68;;;;;;;28.63;33.66;100001.66;5014645;28;20536;-60
2022/06/08 13:32:15;;;;;;;1.20;0.65;;;;;;;28.65;33.27;100001.22;5018346;28;20041;-60
2022/06/08 13:35:02;;;;;;;1.83;0.60;;;;;;;28.58;33.20;99999.44;5014355;28;20049;-60
2022/06/08 13:37:50;;;;;;;1.05;0.77;;;;;;;28.59;33.95;99995.41;5010383;28;20532;-60